Time;durP1;ratioP1;P1;durP2;ratioP2;P2;SDS_P1;SDS_P2;PMS_P1;PMS_P2;Temp;Humidity;BMP_temperature;BMP_pressure;BME280_temperature;BME280_humidity;BME280_pressure;Samples;Min_cycle;Max_cycle;Signal;HPM_P1;HPM_P2
2023/03/13 00:02:35;;;;;;;7.60;2.93;;;;;;;12.29;44.72;99089.56;10350150;28;20237;-36
2023/03/13 00:07:37;;;;;;;8.47;3.37;;;;;;;14.25;43.03;99077.94;10359536;28;20236;-36
2023/03/13 00:12:38;;;;;;;7.83;2.90;;;;;;;12.89;43.57;99091.94;10355883;28;20901;-36
2023/03/13 00:17:40;;;;;;;7.23;3.20;;;;;;;14.15;42.97;99100.78;10355807;28;20225;-36
2023/03/13 00:22:42;;;;;;;8.20;3.63;;;;;;;13.81;43.37;99091.44;10359243;28;20233;-36
2023/03/13 00:27:43;;;;;;;7.93;3.50;;;;;;;12.98;44.37;99065.66;10365194;28;20243;-36
2023/03/13 00:32:47;;;;;;;10.53;3.63;;;;;;;14.45;42.55;99024.66;10356236;28;20225;-36
2023/03/13 00:37:49;;;;;;;8.80;3.40;;;;;;;15.39;41.16;98972.81;10358679;28;20209;-36
2023/03/13 00:42:50;;;;;;;7.33;3.70;;;;;;;14.31;42.89;99048.25;10357596;28;21030;-36
2023/03/13 00:47:52;;;;;;;7.43;2.80;;;;;;;12.31;44.72;98991.72;10354457;28;20636;-36
2023/03/13 00:52:54;;;;;;;8.23;2.70;;;;;;;13.16;43.26;99044.25;10359537;28;20241;-37
2023/03/13 00:57:55;;;;;;;8.60;2.80;;;;;;;13.14;44.46;99050.88;10364622;28;20309;-36
2023/03/13 01:02:57;;;;;;;7.73;3.00;;;;;;;15.28;42.25;98909.78;10360620;28;20280;-36
2023/03/13 01:07:59;;;;;;;4.77;2.60;;;;;;;11.72;45.51;98897.16;10353718;28;20238;-36
2023/03/13 01:13:03;;;;;;;5.77;3.07;;;;;;;13.08;44.55;99015.78;10352043;28;20259;-36
2023/03/13 01:18:05;;;;;;;7.53;2.50;;;;;;;14.24;43.82;98964.09;10356898;28;20673;-36
2023/03/13 01:23:07;;;;;;;7.30;3.23;;;;;;;13.46;43.54;99022.09;10360628;28;20244;-36
2023/03/13 01:28:09;;;;;;;2.70;2.07;;;;;;;14.20;43.30;99014.03;10359078;28;20261;-36
2023/03/13 01:33:11;;;;;;;5.40;2.43;;;;;;;14.09;42.44;98999.50;10354370;28;20876;-36
2023/03/13 01:38:13;;;;;;;6.37;2.70;;;;;;;15.02;42.50;98940.75;10357756;28;20305;-36
2023/03/13 01:43:24;;;;;;;5.63;2.57;;;;;;;15.81;41.96;98882.84;10355010;28;20234;-35
2023/03/13 01:48:42;;;;;;;4.57;3.10;;;;;;;15.82;42.14;98881.75;10354129;28;20236;-36
2023/03/13 01:53:48;;;;;;;5.70;2.60;;;;;;;14.52;43.90;98946.50;10353985;28;20237;-36
2023/03/13 01:58:52;;;;;;;6.57;2.23;;;;;;;15.51;42.33;98856.88;10348025;28;20617;-36
2023/03/13 02:03:56;;;;;;;4.33;2.80;;;;;;;15.39;43.07;98877.66;10356445;28;20229;-36
2023/03/13 02:09:09;;;;;;;4.20;2.53;;;;;;;13.34;46.51;98954.00;10352767;28;20275;-35
2023/03/13 02:14:12;;;;;;;4.27;2.47;;;;;;;14.25;45.10;98936.13;10357083;28;20608;-36
2023/03/13 02:19:19;;;;;;;4.47;2.60;;;;;;;13.66;46.32;98954.66;10358091;28;20256;-36
2023/03/13 02:24:46;;;;;;;5.17;2.40;;;;;;;14.32;46.25;98909.94;10356167;28;20241;-36
2023/03/13 02:29:49;;;;;;;4.37;2.63;;;;;;;13.66;46.56;98919.72;10354361;28;20236;-36
2023/03/13 02:34:55;;;;;;;4.47;2.50;;;;;;;14.20;47.17;98853.41;10348201;28;20232;-36
2023/03/13 02:40:01;;;;;;;5.07;2.30;;;;;;;15.58;44.94;98763.22;10346031;28;20232;-36
2023/03/13 02:45:04;;;;;;;4.47;2.40;;;;;;;13.62;47.24;98916.66;10355650;28;20340;-36
2023/03/13 02:50:06;;;;;;;2.70;2.13;;;;;;;14.49;45.30;98858.13;10351686;28;20240;-36
2023/03/13 02:55:27;;;;;;;4.23;2.23;;;;;;;15.91;44.33;98755.38;10355743;28;20259;-36
2023/03/13 03:00:28;;;;;;;4.97;3.20;;;;;;;15.35;45.56;98782.97;10349164;28;20324;-36
2023/03/13 03:05:30;;;;;;;3.23;2.83;;;;;;;14.57;45.93;98829.00;10356767;28;20679;-36
2023/03/13 03:10:35;;;;;;;5.17;2.80;;;;;;;15.51;45.37;98749.84;10349334;28;20239;-36
2023/03/13 03:15:37;;;;;;;3.13;1.90;;;;;;;16.88;43.99;98746.00;10355519;28;20239;-36
2023/03/13 03:20:39;;;;;;;2.63;1.93;;;;;;;15.61;45.52;98786.19;10349713;28;20233;-37
2023/03/13 03:25:40;;;;;;;2.77;2.30;;;;;;;15.60;45.57;98752.19;10352379;28;20688;-36
2023/03/13 03:30:42;;;;;;;3.27;2.53;;;;;;;15.66;45.96;98770.91;10357951;28;20237;-36
2023/03/13 03:35:44;;;;;;;4.73;2.60;;;;;;;15.37;45.71;98771.94;10350990;28;20245;-36
2023/03/13 03:40:46;;;;;;;3.30;2.50;;;;;;;15.60;45.83;98774.56;10348448;28;20260;-37
2023/03/13 03:45:48;;;;;;;4.57;2.47;;;;;;;16.44;44.87;98751.38;10358031;28;20336;-36
2023/03/13 03:50:49;;;;;;;4.33;3.17;;;;;;;16.64;44.06;98739.25;10362469;28;20329;-37
2023/03/13 03:55:51;;;;;;;2.87;2.00;;;;;;;15.71;44.81;98756.69;10354303;28;20798;-37
2023/03/13 04:00:55;;;;;;;2.53;1.93;;;;;;;16.56;44.55;98722.38;10352814;28;20232;-36
2023/03/13 04:05:57;;;;;;;4.33;2.70;;;;;;;16.55;43.80;98712.66;10317643;28;20233;-36
2023/03/13 04:11:00;;;;;;;3.27;2.07;;;;;;;15.76;44.67;98713.63;10355553;28;20240;-36
2023/03/13 04:16:08;;;;;;;2.60;2.40;;;;;;;15.58;44.31;98765.09;10352226;28;20234;-36
2023/03/13 04:21:10;;;;;;;3.80;2.40;;;;;;;15.72;44.94;98727.84;10362747;28;20310;-37
2023/03/13 04:26:12;;;;;;;4.27;2.47;;;;;;;15.12;46.27;98773.09;10363474;28;20233;-37
2023/03/13 04:31:13;;;;;;;3.20;2.00;;;;;;;16.03;45.25;98719.19;10365561;28;20233;-36
2023/03/13 04:36:15;;;;;;;2.37;2.17;;;;;;;16.30;44.26;98731.19;10355126;28;20217;-36
2023/03/13 04:41:17;;;;;;;2.70;2.20;;;;;;;15.84;44.86;98764.47;10358759;28;21815;-36
2023/03/13 04:46:19;;;;;;;2.77;2.30;;;;;;;15.98;44.62;98716.41;10360034;28;20229;-36
2023/03/13 04:51:20;;;;;;;2.30;2.10;;;;;;;15.81;44.91;98786.53;10361817;28;20299;-36
2023/03/13 04:56:25;;;;;;;5.63;2.23;;;;;;;15.27;45.84;98759.13;10355178;28;20231;-36
2023/03/13 05:01:43;;;;;;;2.37;2.23;;;;;;;15.49;46.70;98753.84;10347721;28;20228;-35
2023/03/13 05:06:45;;;;;;;2.73;2.30;;;;;;;15.61;46.39;98733.06;10357256;28;20250;-36
2023/03/13 05:11:46;;;;;;;2.10;2.00;;;;;;;14.02;48.15;98794.31;10355247;28;20255;-36
2023/03/13 05:16:48;;;;;;;1.90;1.80;;;;;;;15.22;47.08;98745.50;10357191;28;20241;-35
2023/03/13 05:21:50;;;;;;;2.10;1.90;;;;;;;13.78;49.85;98834.56;10358607;28;20243;-37
2023/03/13 05:26:52;;;;;;;3.00;1.70;;;;;;;14.97;47.13;98759.34;10353517;28;20238;-37
2023/03/13 05:31:53;;;;;;;2.20;2.00;;;;;;;16.58;45.86;98716.72;10358703;28;20241;-37
2023/03/13 05:36:55;;;;;;;1.87;1.70;;;;;;;16.42;46.01;98742.72;10356537;28;20237;-37
2023/03/13 05:41:57;;;;;;;1.60;1.50;;;;;;;15.69;47.13;98727.28;10355917;28;20709;-37
2023/03/13 05:46:58;;;;;;;2.00;1.90;;;;;;;15.82;46.82;98734.22;10331576;28;20237;-37
2023/03/13 05:52:00;;;;;;;3.00;1.90;;;;;;;16.35;45.53;98724.00;10361394;28;20237;-37
2023/03/13 05:57:02;;;;;;;1.83;1.73;;;;;;;15.85;47.00;98746.41;10346156;28;20226;-37
2023/03/13 06:02:04;;;;;;;2.30;2.10;;;;;;;15.48;47.66;98741.44;10356577;28;20230;-37
2023/03/13 06:07:05;;;;;;;2.00;1.83;;;;;;;16.49;46.35;98705.56;10351895;28;20252;-37
2023/03/13 06:12:09;;;;;;;1.80;1.70;;;;;;;15.97;47.59;98727.44;10355500;28;20229;-37
2023/03/13 06:17:11;;;;;;;2.00;1.90;;;;;;;14.24;49.22;98799.97;10353975;28;20241;-37
2023/03/13 06:22:14;;;;;;;2.80;2.00;;;;;;;15.16;47.60;98768.06;10354915;28;20241;-37
2023/03/13 06:27:16;;;;;;;2.07;1.90;;;;;;;16.25;46.84;98713.84;10353551;28;20230;-37
2023/03/13 06:32:18;;;;;;;2.30;2.20;;;;;;;15.64;47.41;98740.66;10349672;28;20244;-37
2023/03/13 06:37:19;;;;;;;1.93;1.80;;;;;;;16.63;46.57;98716.78;10344300;28;20245;-37
2023/03/13 06:42:21;;;;;;;1.80;1.70;;;;;;;17.67;45.37;98733.13;10343072;28;20232;-37
2023/03/13 06:47:23;;;;;;;2.37;1.97;;;;;;;16.65;46.03;98703.88;10349733;28;21326;-37
2023/03/13 06:52:25;;;;;;;1.90;1.80;;;;;;;14.72;49.46;98835.78;10348020;28;20229;-37
2023/03/13 06:57:41;;;;;;;2.07;1.97;;;;;;;16.19;47.57;98725.59;10338385;28;20268;-37
2023/03/13 07:02:43;;;;;;;1.83;1.70;;;;;;;16.30;47.35;98715.00;10349186;28;20233;-37
2023/03/13 07:07:45;;;;;;;3.37;2.17;;;;;;;14.25;51.03;98782.75;10345904;28;20230;-37
2023/03/13 07:12:46;;;;;;;3.57;1.90;;;;;;;16.47;47.65;98682.59;10351835;28;20225;-37
2023/03/13 07:17:48;;;;;;;2.03;1.93;;;;;;;16.21;47.95;98647.94;10343727;28;20656;-37
2023/03/13 07:22:52;;;;;;;1.90;1.80;;;;;;;14.52;49.92;98766.16;10357963;28;20245;-37
2023/03/13 07:27:53;;;;;;;2.10;2.00;;;;;;;15.16;49.40;98739.22;10357784;28;20308;-37
2023/03/13 07:32:55;;;;;;;1.60;1.50;;;;;;;13.34;51.55;98723.75;10358880;28;20244;-37
2023/03/13 07:37:57;;;;;;;1.93;1.80;;;;;;;14.77;49.70;98753.22;10353136;28;20272;-37
2023/03/13 07:42:58;;;;;;;2.00;1.63;;;;;;;15.94;49.28;98661.28;10356774;28;20256;-37
2023/03/13 07:48:00;;;;;;;1.60;1.50;;;;;;;15.69;48.03;98649.06;10354690;28;20230;-37
2023/03/13 07:53:02;;;;;;;1.90;1.80;;;;;;;17.28;46.66;98671.09;10357509;28;20241;-37
2023/03/13 07:58:03;;;;;;;3.83;2.00;;;;;;;17.66;45.63;98658.44;10357986;28;20237;-37
2023/03/13 08:03:05;;;;;;;1.47;1.37;;;;;;;16.70;47.92;98685.03;10355038;28;20307;-37
2023/03/13 08:08:08;;;;;;;1.90;1.80;;;;;;;16.96;46.14;98639.41;10358010;28;20233;-37
2023/03/13 08:13:10;;;;;;;2.40;2.20;;;;;;;16.06;48.14;98728.66;10356308;28;20325;-37
2023/03/13 08:18:12;;;;;;;1.80;1.70;;;;;;;17.61;45.62;98655.66;10353355;28;20232;-37
2023/03/13 08:23:14;;;;;;;2.10;2.00;;;;;;;17.29;46.29;98662.72;10353946;28;20707;-37
2023/03/13 08:28:15;;;;;;;2.37;1.70;;;;;;;17.08;46.58;98686.00;10361674;28;20299;-37
2023/03/13 08:33:17;;;;;;;1.97;1.87;;;;;;;19.16;43.67;98666.22;10354657;28;20260;-37
2023/03/13 08:38:19;;;;;;;1.77;1.67;;;;;;;17.60;45.59;98629.72;10360765;28;20211;-37
2023/03/13 08:43:21;;;;;;;3.87;2.80;;;;;;;16.48;47.84;98695.81;10351316;28;20205;-37
2023/03/13 08:48:22;;;;;;;1.93;1.60;;;;;;;16.66;46.34;98646.06;10355914;28;20241;-37
2023/03/13 08:53:25;;;;;;;2.30;1.57;;;;;;;18.86;44.30;98623.59;10354073;28;20242;-37
2023/03/13 08:58:26;;;;;;;1.90;1.80;;;;;;;15.70;47.62;98677.66;10354257;28;20237;-37
2023/03/13 09:03:28;;;;;;;2.47;2.27;;;;;;;18.48;44.63;98593.16;10355879;28;20229;-37
2023/03/13 09:08:31;;;;;;;1.83;1.67;;;;;;;17.95;44.51;98582.31;10347980;28;20328;-37
2023/03/13 09:13:35;;;;;;;4.47;1.70;;;;;;;17.05;45.75;98650.56;10351461;28;20240;-37
2023/03/13 09:18:38;;;;;;;2.07;1.90;;;;;;;19.30;42.83;98501.91;10340094;28;20340;-37
2023/03/13 09:23:39;;;;;;;1.50;1.40;;;;;;;16.66;45.42;98565.06;10348496;28;20225;-37
2023/03/13 09:28:42;;;;;;;1.87;1.60;;;;;;;18.27;43.85;98518.03;10342273;28;20651;-37
2023/03/13 09:33:46;;;;;;;1.97;1.87;;;;;;;19.09;42.55;98541.78;10345909;28;20225;-37
2023/03/13 09:38:52;;;;;;;1.53;1.43;;;;;;;18.82;42.74;98542.81;10340724;28;20969;-37
2023/03/13 09:44:12;;;;;;;2.60;2.00;;;;;;;20.62;41.20;98471.78;10347920;28;20237;-37
2023/03/13 09:49:35;;;;;;;3.80;1.83;;;;;;;20.74;41.66;98466.00;10342790;28;20328;-37
2023/03/13 09:54:42;;;;;;;2.20;2.10;;;;;;;20.61;41.22;98436.75;10348722;28;20235;-37
2023/03/13 09:59:51;;;;;;;2.57;2.13;;;;;;;20.39;41.09;98456.19;10351175;28;20240;-37
2023/03/13 10:05:04;;;;;;;2.20;2.00;;;;;;;22.59;38.67;98405.84;10344528;28;20646;-37
2023/03/13 10:10:13;;;;;;;2.10;2.00;;;;;;;19.85;42.03;98450.50;10341797;28;20241;-37
2023/03/13 10:15:38;;;;;;;2.07;1.73;;;;;;;18.82;43.02;98471.56;10351915;28;20240;-37
2023/03/13 10:20:39;;;;;;;2.33;2.00;;;;;;;18.51;43.28;98474.25;10348410;28;20234;-37
2023/03/13 10:25:41;;;;;;;1.97;1.87;;;;;;;18.95;42.70;98462.09;10343416;28;20243;-37
2023/03/13 10:30:50;;;;;;;5.33;2.13;;;;;;;19.31;43.22;98470.19;10342734;28;20316;-37
2023/03/13 10:36:10;;;;;;;4.73;2.43;;;;;;;18.45;43.57;98415.75;10337755;28;20240;-37
2023/03/13 10:41:34;;;;;;;2.73;1.80;;;;;;;18.79;43.33;98417.91;10337814;28;20731;-37
2023/03/13 10:46:40;;;;;;;1.73;1.63;;;;;;;20.88;42.14;98397.41;10342433;28;20350;-37
2023/03/13 10:52:03;;;;;;;1.70;1.57;;;;;;;22.18;39.55;98294.78;10340028;28;20250;-37
2023/03/13 10:57:08;;;;;;;2.23;1.80;;;;;;;22.21;40.39;98302.38;10339438;28;20225;-37
2023/03/13 11:06:35;;;;;;;2.80;2.60;;;;;;;16.89;48.65;98430.75;10548205;27;20372;-69
2023/03/13 11:11:55;;;;;;;3.10;1.97;;;;;;;18.32;46.52;98364.81;10420874;28;20231;-69
2023/03/13 11:17:23;;;;;;;3.87;2.00;;;;;;;17.35;47.37;98404.81;10463725;28;20289;-63
2023/03/13 11:22:43;;;;;;;2.00;1.90;;;;;;;18.77;45.67;98336.06;10470270;28;20791;-67
2023/03/13 11:28:12;;;;;;;3.57;2.03;;;;;;;18.32;44.89;98354.00;10466462;28;20306;-66
2023/03/13 11:33:36;;;;;;;2.10;1.87;;;;;;;18.62;45.23;98337.75;10437333;28;20612;-66
2023/03/13 11:38:42;;;;;;;2.73;1.70;;;;;;;19.98;43.20;98256.34;10419558;28;20254;-66
2023/03/13 11:44:02;;;;;;;2.90;2.03;;;;;;;19.31;43.28;98261.38;10437320;28;20234;-66
2023/03/13 11:49:39;;;;;;;2.90;2.03;;;;;;;20.72;41.98;98268.97;10466753;28;20238;-65
2023/03/13 11:54:44;;;;;;;2.67;1.93;;;;;;;20.18;41.85;98249.16;10428402;28;20305;-66
2023/03/13 11:59:48;;;;;;;2.40;1.87;;;;;;;20.53;41.13;98274.31;10450627;28;20235;-66
2023/03/13 12:05:00;;;;;;;2.80;2.20;;;;;;;20.66;41.19;98216.56;10467220;28;20236;-66
2023/03/13 12:10:05;;;;;;;2.17;1.97;;;;;;;21.24;40.33;98167.44;10464375;28;20235;-66
2023/03/13 12:15:16;;;;;;;5.35;2.10;;;;;;;20.99;41.60;98173.25;10454238;28;20232;-66
2023/03/13 12:21:04;;;;;;;5.57;2.40;;;;;;;20.14;40.76;98170.09;10394124;28;20233;-64
2023/03/13 12:26:06;;;;;;;2.23;2.03;;;;;;;20.77;40.69;98182.78;10383916;28;20244;-66
2023/03/13 12:31:29;;;;;;;2.05;1.92;;;;;;;20.86;40.37;98188.38;10390405;28;20243;-66
2023/03/13 12:37:08;;;;;;;2.33;2.03;;;;;;;20.56;40.27;98146.06;10424546;28;20227;-66
2023/03/13 12:42:12;;;;;;;2.38;2.15;;;;;;;20.53;40.66;98161.03;10422903;28;20248;-64
2023/03/13 12:47:23;;;;;;;2.00;1.90;;;;;;;20.93;39.77;98095.59;10434095;28;20239;-66
2023/03/13 12:52:53;;;;;;;2.95;2.10;;;;;;;20.80;39.70;98102.56;10429045;28;20311;-66
2023/03/13 12:58:10;;;;;;;1.80;1.70;;;;;;;20.73;39.42;98066.75;10428101;28;20236;-65
2023/03/13 13:03:57;;;;;;;2.65;1.70;;;;;;;21.30;39.88;98083.84;10423354;28;20239;-65
2023/03/13 13:09:13;;;;;;;3.42;1.90;;;;;;;22.09;39.12;98053.06;10413856;28;20314;-65
2023/03/13 13:14:15;;;;;;;1.67;1.50;;;;;;;22.37;38.65;98006.75;10422440;28;20235;-65
2023/03/13 13:19:23;;;;;;;2.33;1.65;;;;;;;20.95;40.08;98011.81;10428431;28;20609;-65
2023/03/13 13:24:48;;;;;;;2.45;1.90;;;;;;;20.72;40.68;98059.72;10431245;28;20236;-66
2023/03/13 13:29:55;;;;;;;2.28;1.55;;;;;;;20.66;40.41;98019.00;10429060;28;20251;-65
2023/03/13 13:35:12;;;;;;;3.20;1.30;;;;;;;22.06;39.08;97935.78;10432984;28;20658;-65
2023/03/13 13:40:20;;;;;;;1.73;1.60;;;;;;;20.71;40.09;97968.41;10426697;28;20235;-66
2023/03/13 13:45:27;;;;;;;2.08;1.45;;;;;;;21.32;39.64;97956.50;10393396;28;20287;-66
2023/03/13 13:50:29;;;;;;;1.92;1.70;;;;;;;20.78;40.70;97996.03;10390719;28;20221;-65
2023/03/13 13:55:37;;;;;;;3.13;1.70;;;;;;;20.93;39.96;97929.75;10392088;28;20232;-66
2023/03/13 14:00:44;;;;;;;1.63;1.53;;;;;;;21.22;39.29;97889.53;10392074;28;20632;-66
2023/03/13 14:05:48;;;;;;;1.67;1.50;;;;;;;21.88;38.92;97869.41;10391029;28;20711;-65
2023/03/13 14:11:23;;;;;;;1.83;1.67;;;;;;;21.71;39.02;97856.44;10383880;28;20248;-66
2023/03/13 14:16:25;;;;;;;1.60;1.50;;;;;;;20.64;40.22;97882.63;10425306;28;20817;-65
2023/03/13 14:21:27;;;;;;;1.63;1.50;;;;;;;21.64;39.36;97875.13;10387477;28;20212;-66
2023/03/13 14:26:29;;;;;;;1.60;1.50;;;;;;;22.55;37.54;97786.97;10388848;28;20232;-65
2023/03/13 14:31:37;;;;;;;1.80;1.30;;;;;;;22.46;37.44;97835.94;10391504;28;20237;-66
2023/03/13 14:36:49;;;;;;;1.40;1.30;;;;;;;21.35;38.86;97838.13;10387052;28;20328;-65
2023/03/13 14:41:51;;;;;;;2.08;1.70;;;;;;;23.19;36.60;97767.50;10385418;28;20328;-65
2023/03/13 14:46:58;;;;;;;2.33;1.60;;;;;;;23.21;36.77;97770.75;10394705;28;20662;-66
2023/03/13 14:52:12;;;;;;;1.75;1.58;;;;;;;23.73;36.74;97722.78;10385298;28;20712;-64
2023/03/13 14:57:20;;;;;;;3.28;1.50;;;;;;;24.00;35.80;97717.00;10394565;28;20256;-65
2023/03/13 15:05:32;;;;;;;1.98;1.60;;;;;;;20.09;41.03;97787.34;10354404;28;20827;-65
2023/03/13 15:10:35;;;;;;;1.83;1.55;;;;;;;19.87;40.29;97779.84;10381586;28;20576;-65
2023/03/13 15:15:37;;;;;;;1.45;1.35;;;;;;;20.25;39.99;97758.09;10378841;28;20284;-65
2023/03/13 15:20:39;;;;;;;2.15;1.58;;;;;;;20.26;40.14;97729.81;10391337;28;20327;-64
2023/03/13 15:25:41;;;;;;;1.65;1.55;;;;;;;21.48;38.22;97693.16;10387580;28;20259;-65
2023/03/13 15:30:43;;;;;;;2.05;1.60;;;;;;;22.76;38.20;97658.28;10385662;28;20225;-65
2023/03/13 15:35:46;;;;;;;5.85;1.83;;;;;;;22.80;37.90;97643.72;10384637;28;20251;-64
2023/03/13 15:40:48;;;;;;;2.13;1.92;;;;;;;21.64;37.30;97690.06;10386745;28;20307;-65
2023/03/13 15:45:51;;;;;;;2.17;1.70;;;;;;;21.56;37.38;97688.88;10384222;28;20234;-65
2023/03/13 15:50:58;;;;;;;1.67;1.58;;;;;;;21.82;37.25;97677.41;10344634;28;20782;-65
2023/03/13 15:56:02;;;;;;;2.03;1.88;;;;;;;22.09;36.61;97655.47;10380916;28;20244;-65
2023/03/13 16:01:03;;;;;;;2.88;1.65;;;;;;;22.21;36.80;97635.81;10382338;28;20240;-64
2023/03/13 16:06:29;;;;;;;1.75;1.60;;;;;;;21.30;37.13;97658.72;10382335;28;20236;-65
2023/03/13 16:11:32;;;;;;;2.45;1.98;;;;;;;21.37;36.47;97648.25;10385342;28;20229;-64
2023/03/13 16:16:34;;;;;;;2.65;1.75;;;;;;;22.67;35.78;97623.66;10357121;28;20790;-65
2023/03/13 16:21:41;;;;;;;2.92;2.08;;;;;;;21.92;36.56;97647.19;10355534;28;20241;-65
2023/03/13 16:26:44;;;;;;;2.85;2.05;;;;;;;22.01;36.76;97641.81;10354960;28;20237;-65
2023/03/13 16:31:45;;;;;;;2.28;1.95;;;;;;;22.27;35.89;97582.81;10358841;28;20353;-65
2023/03/13 16:36:47;;;;;;;2.83;1.70;;;;;;;21.82;36.35;97625.69;10358538;28;20303;-65
2023/03/13 16:41:49;;;;;;;2.58;2.15;;;;;;;21.18;37.47;97657.34;10352682;28;20619;-64
2023/03/13 16:46:50;;;;;;;2.80;2.47;;;;;;;22.56;36.52;97602.47;10358478;28;20234;-65
2023/03/13 16:52:12;;;;;;;1.52;1.42;;;;;;;21.54;37.54;97636.69;10348790;28;20229;-64
2023/03/13 16:57:17;;;;;;;3.25;1.77;;;;;;;20.46;38.92;97647.16;10351268;28;20241;-65
2023/03/13 17:02:19;;;;;;;1.70;1.60;;;;;;;21.33;38.60;97601.81;10350571;28;20256;-65
2023/03/13 17:07:23;;;;;;;1.60;1.50;;;;;;;18.79;42.78;97710.72;10358029;28;20229;-64
2023/03/13 17:12:25;;;;;;;1.83;1.73;;;;;;;17.34;44.41;97670.63;10353182;28;20236;-64
2023/03/13 17:17:27;;;;;;;1.73;1.63;;;;;;;17.42;46.33;97765.72;10352600;28;20954;-65
2023/03/13 17:22:29;;;;;;;2.20;2.00;;;;;;;17.08;47.67;97739.41;10359510;28;20233;-67
2023/03/13 17:27:31;;;;;;;2.43;2.23;;;;;;;16.77;48.60;97729.50;10351248;28;20241;-63
2023/03/13 17:32:32;;;;;;;1.80;1.70;;;;;;;16.52;49.58;97743.88;10350003;28;20237;-63
2023/03/13 17:37:34;;;;;;;1.87;1.77;;;;;;;17.73;48.82;97739.31;10352461;28;20229;-64
2023/03/13 17:42:37;;;;;;;2.57;2.10;;;;;;;17.57;48.77;97781.84;10353501;28;20239;-67
2023/03/13 17:47:39;;;;;;;1.83;1.73;;;;;;;17.12;49.32;97814.25;10349879;28;20241;-68
2023/03/13 17:52:41;;;;;;;3.97;2.10;;;;;;;16.89;51.27;97823.72;10350676;28;20225;-67
2023/03/13 17:57:43;;;;;;;2.40;2.20;;;;;;;17.49;50.61;97745.38;10350594;28;20237;-66
2023/03/13 18:02:44;;;;;;;2.60;2.10;;;;;;;17.32;50.52;97778.19;10352125;28;20237;-67
2023/03/13 18:07:47;;;;;;;2.83;2.00;;;;;;;18.14;49.17;97695.69;10347057;28;20241;-68
2023/03/13 18:12:50;;;;;;;2.43;1.70;;;;;;;17.91;47.85;97724.31;10352849;28;20263;-68
2023/03/13 18:17:52;;;;;;;3.50;2.63;;;;;;;19.30;46.35;97714.72;10351086;28;20237;-67
2023/03/13 18:22:58;;;;;;;3.73;2.40;;;;;;;18.32;47.14;97767.31;10356052;28;20799;-67
2023/03/13 18:28:00;;;;;;;3.27;2.30;;;;;;;20.36;45.55;97671.81;10348809;28;20713;-69
2023/03/13 18:33:01;;;;;;;2.40;2.20;;;;;;;18.63;47.31;97739.91;10351248;28;20229;-67
2023/03/13 18:38:03;;;;;;;2.30;2.10;;;;;;;19.07;47.05;97732.66;10355233;28;20229;-67
2023/03/13 18:43:05;;;;;;;5.77;2.00;;;;;;;21.79;41.57;97633.31;10350423;28;20233;-67
2023/03/13 18:48:09;;;;;;;1.90;1.80;;;;;;;21.61;42.30;97694.22;10354613;28;20270;-67
2023/03/13 18:53:11;;;;;;;3.10;2.80;;;;;;;21.75;41.78;97694.97;10350809;28;20231;-67
2023/03/13 18:58:13;;;;;;;5.80;3.47;;;;;;;19.35;45.37;97850.22;10355180;28;20348;-68
2023/03/13 19:03:19;;;;;;;4.37;3.67;;;;;;;19.48;45.57;97883.97;10345821;28;20248;-67
2023/03/13 19:08:20;;;;;;;3.13;2.90;;;;;;;16.93;50.52;98038.19;10349488;28;20715;-66
2023/03/13 19:13:22;;;;;;;2.17;2.03;;;;;;;13.67;54.31;97997.50;10354270;28;20232;-69
2023/03/13 19:18:23;;;;;;;1.93;1.57;;;;;;;12.97;55.01;98083.97;10350300;28;20233;-71
2023/03/13 19:23:25;;;;;;;2.07;1.97;;;;;;;12.60;54.10;98138.00;10350189;28;20236;-67
2023/03/13 19:28:27;;;;;;;1.57;1.40;;;;;;;12.98;54.12;98066.81;10351714;28;20767;-64
2023/03/13 19:33:28;;;;;;;3.63;1.93;;;;;;;14.19;51.67;98066.25;10343328;28;20244;-68
2023/03/13 19:38:30;;;;;;;2.27;2.17;;;;;;;15.36;49.48;98037.25;10354319;28;20230;-66
2023/03/13 19:43:31;;;;;;;2.80;2.00;;;;;;;15.23;48.81;98124.72;10351351;28;20319;-65
2023/03/13 19:48:33;;;;;;;2.27;1.90;;;;;;;16.36;47.23;98074.25;10352649;28;20691;-66
2023/03/13 19:53:35;;;;;;;2.40;1.83;;;;;;;19.93;42.31;97974.88;10351144;28;20850;-66
2023/03/13 19:58:36;;;;;;;2.23;1.70;;;;;;;19.24;43.44;98011.44;10356605;28;20252;-66
2023/03/13 20:03:38;;;;;;;3.93;2.23;;;;;;;18.55;43.98;98023.00;10357116;28;20221;-66
2023/03/13 20:08:40;;;;;;;1.90;1.80;;;;;;;15.78;48.52;98168.63;10356722;28;20593;-67
2023/03/13 20:13:42;;;;;;;1.90;1.80;;;;;;;15.98;48.12;98112.09;10354551;28;20232;-65
2023/03/13 20:18:47;;;;;;;3.27;2.00;;;;;;;13.64;52.70;98081.31;10354910;28;20309;-65
2023/03/13 20:23:50;;;;;;;2.70;2.00;;;;;;;14.49;52.60;98094.59;10349842;28;20241;-66
2023/03/13 20:28:53;;;;;;;2.60;2.40;;;;;;;15.02;51.94;98035.63;10355632;28;20233;-65
2023/03/13 20:33:55;;;;;;;2.60;2.10;;;;;;;13.56;54.90;98091.66;10353428;28;20241;-66
2023/03/13 20:38:57;;;;;;;4.23;2.70;;;;;;;14.95;52.63;98027.78;10357733;28;20235;-65
2023/03/13 20:43:59;;;;;;;2.10;1.90;;;;;;;12.89;55.71;98077.94;10352578;28;20740;-64
2023/03/13 20:49:00;;;;;;;2.30;2.20;;;;;;;13.78;54.73;98059.47;10345024;28;20245;-64
2023/03/13 20:54:02;;;;;;;2.70;2.03;;;;;;;14.36;53.22;98070.75;10350036;28;20720;-64
2023/03/13 20:59:04;;;;;;;1.70;1.60;;;;;;;14.39;52.82;98089.88;10353561;28;20658;-64
2023/03/13 21:04:05;;;;;;;2.07;1.93;;;;;;;13.64;52.79;98118.94;10352483;28;20704;-63
2023/03/13 21:09:07;;;;;;;1.80;1.70;;;;;;;14.82;51.81;98063.19;10356043;28;20284;-64
2023/03/13 21:14:08;;;;;;;2.40;1.70;;;;;;;13.05;54.01;98088.94;10348094;28;20238;-64
2023/03/13 21:19:10;;;;;;;2.67;1.70;;;;;;;14.56;51.63;98073.66;10349690;28;20241;-65
2023/03/13 21:24:12;;;;;;;2.07;1.97;;;;;;;13.72;53.05;98108.84;10354645;28;20253;-67
2023/03/13 21:29:13;;;;;;;2.70;2.00;;;;;;;14.78;51.62;98045.91;10353252;28;20236;-64
2023/03/13 21:34:15;;;;;;;1.73;1.63;;;;;;;15.07;50.78;98048.34;10356006;28;20236;-65
2023/03/13 21:39:17;;;;;;;2.20;2.10;;;;;;;13.49;53.13;98137.50;10354630;28;20728;-63
2023/03/13 21:44:19;;;;;;;3.47;2.43;;;;;;;13.73;52.54;98097.03;10352175;28;20230;-65
2023/03/13 21:49:20;;;;;;;2.97;2.10;;;;;;;13.15;52.64;98140.13;10347617;28;20237;-64
2023/03/13 21:54:24;;;;;;;2.43;2.13;;;;;;;13.76;53.35;98042.78;10357143;28;20229;-65
2023/03/13 21:59:26;;;;;;;1.90;1.80;;;;;;;12.25;54.34;98141.53;10357472;28;20229;-65
2023/03/13 22:04:28;;;;;;;2.10;2.00;;;;;;;12.51;54.42;98159.03;10351752;28;20259;-67
2023/03/13 22:09:30;;;;;;;2.30;2.10;;;;;;;12.74;54.51;98107.97;10349817;28;20221;-66
2023/03/13 22:14:31;;;;;;;2.23;2.03;;;;;;;12.26;54.39;98156.59;10351587;28;20232;-67
2023/03/13 22:19:33;;;;;;;1.50;1.50;;;;;;;11.66;55.37;98137.03;10345619;28;20233;-63
2023/03/13 22:24:35;;;;;;;1.20;1.20;;;;;;;12.23;54.30;98128.38;10352757;28;20233;-64
2023/03/13 22:29:36;;;;;;;1.80;1.70;;;;;;;13.87;51.24;98039.19;10350231;28;20239;-64
2023/03/13 22:34:43;;;;;;;1.53;1.43;;;;;;;13.61;51.76;98103.31;10349697;28;20236;-64
2023/03/13 22:39:45;;;;;;;2.00;1.90;;;;;;;14.76;50.07;97995.00;10350933;28;20229;-66
2023/03/13 22:44:47;;;;;;;2.07;1.97;;;;;;;14.36;50.71;98038.47;10351319;28;20982;-65
2023/03/13 22:49:49;;;;;;;2.10;2.00;;;;;;;16.10;47.56;98054.44;10347072;28;20258;-66
2023/03/13 22:54:51;;;;;;;2.47;2.13;;;;;;;13.58;50.94;98141.44;10352402;28;20783;-66
2023/03/13 22:59:52;;;;;;;1.70;1.60;;;;;;;14.09;50.81;98086.78;10351054;28;20240;-63
2023/03/13 23:04:56;;;;;;;1.93;1.83;;;;;;;14.04;50.04;98160.16;10350989;28;20249;-66
2023/03/13 23:09:58;;;;;;;1.90;1.80;;;;;;;14.02;49.17;98136.19;10348356;28;20259;-66
2023/03/13 23:15:00;;;;;;;2.00;1.90;;;;;;;13.88;50.02;98166.34;10346533;28;20768;-66
2023/03/13 23:20:11;;;;;;;1.80;1.70;;;;;;;14.32;50.29;98151.13;10348253;28;20239;-66
2023/03/13 23:25:13;;;;;;;1.60;1.50;;;;;;;14.86;49.13;98137.00;10348911;28;20240;-65
2023/03/13 23:30:16;;;;;;;2.73;1.70;;;;;;;15.77;46.87;98077.97;10350857;28;20228;-65
2023/03/13 23:35:18;;;;;;;2.03;1.77;;;;;;;15.22;48.60;98115.00;10354358;28;20230;-66
2023/03/13 23:40:21;;;;;;;2.40;1.90;;;;;;;14.24;49.76;98173.09;10347670;28;20244;-66
2023/03/13 23:45:23;;;;;;;2.00;1.90;;;;;;;14.33;50.92;98139.31;10348569;28;20237;-66